sensor_id;sensor_type;location;lat;lon;timestamp;pressure;altitude;pressure_sealevel;temperature;humidity
77147;BME280;66121;52.584;9.694;2024-02-23T00:01:20;97173.75;;;9.00;69.30
77147;BME280;66121;52.584;9.694;2024-02-23T00:03:46;97213.44;;;8.81;70.47
77147;BME280;66121;52.584;9.694;2024-02-23T00:06:11;97176.84;;;9.02;69.28
77147;BME280;66121;52.584;9.694;2024-02-23T00:08:37;97198.03;;;8.92;68.94
77147;BME280;66121;52.584;9.694;2024-02-23T00:11:03;97203.69;;;8.89;69.51
77147;BME280;66121;52.584;9.694;2024-02-23T00:13:28;97215.47;;;8.89;68.86
77147;BME280;66121;52.584;9.694;2024-02-23T00:15:54;97200.34;;;8.85;68.39
77147;BME280;66121;52.584;9.694;2024-02-23T00:18:19;97167.50;;;8.81;68.03
77147;BME280;66121;52.584;9.694;2024-02-23T00:20:46;97161.84;;;8.85;66.82
77147;BME280;66121;52.584;9.694;2024-02-23T00:23:12;97162.75;;;8.82;67.04
77147;BME280;66121;52.584;9.694;2024-02-23T00:25:37;97176.34;;;8.67;66.78
77147;BME280;66121;52.584;9.694;2024-02-23T00:28:03;97141.97;;;8.72;66.32
77147;BME280;66121;52.584;9.694;2024-02-23T00:30:28;97136.47;;;8.72;65.11
77147;BME280;66121;52.584;9.694;2024-02-23T00:32:54;97144.72;;;8.81;64.34
77147;BME280;66121;52.584;9.694;2024-02-23T00:35:19;97153.59;;;8.85;63.90
77147;BME280;66121;52.584;9.694;2024-02-23T00:37:44;97211.91;;;8.71;64.79
77147;BME280;66121;52.584;9.694;2024-02-23T00:40:10;97243.97;;;8.65;65.45
77147;BME280;66121;52.584;9.694;2024-02-23T00:42:36;97255.69;;;8.65;65.97
77147;BME280;66121;52.584;9.694;2024-02-23T00:45:01;97265.78;;;8.59;65.00
77147;BME280;66121;52.584;9.694;2024-02-23T00:47:27;97265.94;;;8.65;65.00
77147;BME280;66121;52.584;9.694;2024-02-23T00:49:53;97282.38;;;8.56;65.96
77147;BME280;66121;52.584;9.694;2024-02-23T00:52:18;97295.81;;;8.54;66.12
77147;BME280;66121;52.584;9.694;2024-02-23T00:54:43;97306.47;;;8.43;66.43
77147;BME280;66121;52.584;9.694;2024-02-23T00:57:08;97347.59;;;8.33;66.96
77147;BME280;66121;52.584;9.694;2024-02-23T00:59:34;97334.94;;;8.36;67.19
77147;BME280;66121;52.584;9.694;2024-02-23T01:01:59;97314.84;;;8.48;66.37
77147;BME280;66121;52.584;9.694;2024-02-23T01:04:24;97334.38;;;8.41;66.69
77147;BME280;66121;52.584;9.694;2024-02-23T01:06:50;97338.00;;;8.38;66.61
77147;BME280;66121;52.584;9.694;2024-02-23T01:09:15;97347.66;;;8.43;67.04
77147;BME280;66121;52.584;9.694;2024-02-23T01:11:46;97345.00;;;8.30;66.25
77147;BME280;66121;52.584;9.694;2024-02-23T01:14:11;97383.25;;;8.46;66.36
77147;BME280;66121;52.584;9.694;2024-02-23T01:16:36;97365.63;;;8.34;66.91
77147;BME280;66121;52.584;9.694;2024-02-23T01:19:02;97418.31;;;8.42;67.47
77147;BME280;66121;52.584;9.694;2024-02-23T01:21:28;97500.34;;;8.18;69.43
77147;BME280;66121;52.584;9.694;2024-02-23T01:23:53;97629.66;;;7.86;73.12
77147;BME280;66121;52.584;9.694;2024-02-23T01:26:19;97728.63;;;7.54;76.46
77147;BME280;66121;52.584;9.694;2024-02-23T01:28:44;97784.81;;;7.33;78.32
77147;BME280;66121;52.584;9.694;2024-02-23T01:31:10;97804.22;;;7.26;79.25
77147;BME280;66121;52.584;9.694;2024-02-23T01:33:37;97827.34;;;7.09;80.07
77147;BME280;66121;52.584;9.694;2024-02-23T01:36:04;97836.38;;;7.09;79.78
77147;BME280;66121;52.584;9.694;2024-02-23T01:38:30;97857.34;;;7.00;80.09
77147;BME280;66121;52.584;9.694;2024-02-23T01:40:58;97869.84;;;7.01;80.62
77147;BME280;66121;52.584;9.694;2024-02-23T01:43:23;97906.09;;;6.92;81.26
77147;BME280;66121;52.584;9.694;2024-02-23T01:45:49;97946.25;;;6.83;82.96
77147;BME280;66121;52.584;9.694;2024-02-23T01:48:14;97997.56;;;6.63;84.66
77147;BME280;66121;52.584;9.694;2024-02-23T01:50:40;98067.91;;;6.46;88.59
77147;BME280;66121;52.584;9.694;2024-02-23T01:53:07;98100.34;;;6.01;91.90
77147;BME280;66121;52.584;9.694;2024-02-23T01:55:32;98142.94;;;6.06;95.17
77147;BME280;66121;52.584;9.694;2024-02-23T01:57:59;98164.19;;;5.95;97.47
77147;BME280;66121;52.584;9.694;2024-02-23T02:00:25;98196.56;;;6.00;99.98
77147;BME280;66121;52.584;9.694;2024-02-23T02:02:51;98208.09;;;5.84;100.00
77147;BME280;66121;52.584;9.694;2024-02-23T02:05:17;98221.41;;;5.86;100.00
77147;BME280;66121;52.584;9.694;2024-02-23T02:07:42;98245.81;;;5.69;100.00
77147;BME280;66121;52.584;9.694;2024-02-23T02:10:09;98266.00;;;5.79;100.00
77147;BME280;66121;52.584;9.694;2024-02-23T02:12:34;98260.00;;;5.61;100.00
77147;BME280;66121;52.584;9.694;2024-02-23T02:15:00;98291.91;;;5.71;100.00
77147;BME280;66121;52.584;9.694;2024-02-23T02:17:27;98301.09;;;5.54;100.00
77147;BME280;66121;52.584;9.694;2024-02-23T02:19:53;98287.50;;;5.47;100.00
77147;BME280;66121;52.584;9.694;2024-02-23T02:22:18;98299.63;;;5.46;100.00
77147;BME280;66121;52.584;9.694;2024-02-23T02:24:44;98305.47;;;5.44;100.00
77147;BME280;66121;52.584;9.694;2024-02-23T02:27:11;98317.94;;;5.49;100.00
77147;BME280;66121;52.584;9.694;2024-02-23T02:29:37;98324.25;;;5.42;100.00
77147;BME280;66121;52.584;9.694;2024-02-23T02:32:02;98299.38;;;5.30;100.00
77147;BME280;66121;52.584;9.694;2024-02-23T02:34:28;98326.38;;;5.28;100.00
77147;BME280;66121;52.584;9.694;2024-02-23T02:36:54;98322.06;;;5.27;100.00
77147;BME280;66121;52.584;9.694;2024-02-23T02:39:20;98336.06;;;5.36;100.00
77147;BME280;66121;52.584;9.694;2024-02-23T02:41:45;98332.91;;;5.37;100.00
77147;BME280;66121;52.584;9.694;2024-02-23T02:44:10;98335.28;;;5.32;100.00
77147;BME280;66121;52.584;9.694;2024-02-23T02:46:38;98341.88;;;5.38;100.00
77147;BME280;66121;52.584;9.694;2024-02-23T02:49:03;98359.97;;;5.25;100.00
77147;BME280;66121;52.584;9.694;2024-02-23T02:51:29;98360.84;;;5.14;100.00
77147;BME280;66121;52.584;9.694;2024-02-23T02:53:54;98384.94;;;5.27;100.00
77147;BME280;66121;52.584;9.694;2024-02-23T02:56:19;98393.56;;;5.21;100.00
77147;BME280;66121;52.584;9.694;2024-02-23T02:58:45;98394.13;;;5.06;100.00
77147;BME280;66121;52.584;9.694;2024-02-23T03:01:10;98391.28;;;5.16;100.00
77147;BME280;66121;52.584;9.694;2024-02-23T03:03:36;98386.28;;;5.04;100.00
77147;BME280;66121;52.584;9.694;2024-02-23T03:06:01;98371.81;;;5.11;98.68
77147;BME280;66121;52.584;9.694;2024-02-23T03:08:26;98379.28;;;5.03;97.78
77147;BME280;66121;52.584;9.694;2024-02-23T03:10:52;98357.72;;;5.12;96.92
77147;BME280;66121;52.584;9.694;2024-02-23T03:13:17;98340.19;;;5.06;95.85
77147;BME280;66121;52.584;9.694;2024-02-23T03:15:42;98358.16;;;5.07;95.61
77147;BME280;66121;52.584;9.694;2024-02-23T03:18:08;98356.22;;;5.04;95.14
77147;BME280;66121;52.584;9.694;2024-02-23T03:20:35;98373.09;;;4.96;95.53
77147;BME280;66121;52.584;9.694;2024-02-23T03:23:00;98375.84;;;4.96;94.76
77147;BME280;66121;52.584;9.694;2024-02-23T03:25:28;98365.28;;;4.94;94.07
77147;BME280;66121;52.584;9.694;2024-02-23T03:27:54;98367.25;;;4.94;93.95
77147;BME280;66121;52.584;9.694;2024-02-23T03:30:24;98361.38;;;4.95;93.46
77147;BME280;66121;52.584;9.694;2024-02-23T03:32:50;98339.13;;;4.97;93.03
77147;BME280;66121;52.584;9.694;2024-02-23T03:35:15;98356.72;;;4.96;92.69
77147;BME280;66121;52.584;9.694;2024-02-23T03:37:40;98366.91;;;4.88;92.54
77147;BME280;66121;52.584;9.694;2024-02-23T03:40:06;98379.00;;;4.91;92.88
77147;BME280;66121;52.584;9.694;2024-02-23T03:42:32;98374.28;;;4.95;92.75
77147;BME280;66121;52.584;9.694;2024-02-23T03:44:57;98375.41;;;4.97;92.46
77147;BME280;66121;52.584;9.694;2024-02-23T03:47:22;98382.81;;;5.00;92.22
77147;BME280;66121;52.584;9.694;2024-02-23T03:49:48;98371.19;;;4.89;92.01
77147;BME280;66121;52.584;9.694;2024-02-23T03:52:13;98386.66;;;5.06;91.77
77147;BME280;66121;52.584;9.694;2024-02-23T03:54:38;98388.66;;;5.02;91.42
77147;BME280;66121;52.584;9.694;2024-02-23T03:57:04;98384.69;;;5.10;90.91
77147;BME280;66121;52.584;9.694;2024-02-23T03:59:29;98387.81;;;5.12;90.38
77147;BME280;66121;52.584;9.694;2024-02-23T04:01:56;98410.44;;;5.13;90.55
77147;BME280;66121;52.584;9.694;2024-02-23T04:04:21;98404.97;;;5.13;90.32
77147;BME280;66121;52.584;9.694;2024-02-23T04:06:47;98401.44;;;5.16;89.59
77147;BME280;66121;52.584;9.694;2024-02-23T04:09:12;98406.13;;;5.15;90.06
77147;BME280;66121;52.584;9.694;2024-02-23T04:11:37;98385.09;;;5.09;89.51
77147;BME280;66121;52.584;9.694;2024-02-23T04:14:03;98400.97;;;5.25;89.04
77147;BME280;66121;52.584;9.694;2024-02-23T04:16:30;98388.53;;;5.20;88.88
77147;BME280;66121;52.584;9.694;2024-02-23T04:18:56;98405.22;;;5.29;89.06
77147;BME280;66121;52.584;9.694;2024-02-23T04:21:22;98417.31;;;5.32;88.58
77147;BME280;66121;52.584;9.694;2024-02-23T04:23:47;98400.91;;;5.35;88.63
77147;BME280;66121;52.584;9.694;2024-02-23T04:26:13;98391.94;;;5.31;88.03
77147;BME280;66121;52.584;9.694;2024-02-23T04:28:42;98387.25;;;5.32;87.88
77147;BME280;66121;52.584;9.694;2024-02-23T04:31:10;98388.81;;;5.33;87.95
77147;BME280;66121;52.584;9.694;2024-02-23T04:33:36;98395.00;;;5.37;87.30
77147;BME280;66121;52.584;9.694;2024-02-23T04:36:03;98389.91;;;5.39;86.92
77147;BME280;66121;52.584;9.694;2024-02-23T04:38:29;98384.84;;;5.41;87.08
77147;BME280;66121;52.584;9.694;2024-02-23T04:40:54;98370.38;;;5.40;86.57
77147;BME280;66121;52.584;9.694;2024-02-23T04:43:20;98384.00;;;5.44;86.62
77147;BME280;66121;52.584;9.694;2024-02-23T04:45:45;98387.94;;;5.43;86.67
77147;BME280;66121;52.584;9.694;2024-02-23T04:48:10;98378.97;;;5.42;86.00
77147;BME280;66121;52.584;9.694;2024-02-23T04:50:36;98394.66;;;5.35;86.26
77147;BME280;66121;52.584;9.694;2024-02-23T04:53:02;98397.69;;;5.44;86.12
77147;BME280;66121;52.584;9.694;2024-02-23T04:55:27;98398.47;;;5.44;86.34
77147;BME280;66121;52.584;9.694;2024-02-23T04:57:52;98379.31;;;5.48;85.30
77147;BME280;66121;52.584;9.694;2024-02-23T05:00:18;98376.94;;;5.50;85.22
77147;BME280;66121;52.584;9.694;2024-02-23T05:02:44;98344.19;;;5.43;84.21
77147;BME280;66121;52.584;9.694;2024-02-23T05:05:11;98374.19;;;5.50;84.30
77147;BME280;66121;52.584;9.694;2024-02-23T05:07:37;98383.22;;;5.47;84.54
77147;BME280;66121;52.584;9.694;2024-02-23T05:10:03;98384.78;;;5.48;84.66
77147;BME280;66121;52.584;9.694;2024-02-23T05:12:29;98388.66;;;5.50;84.83
77147;BME280;66121;52.584;9.694;2024-02-23T05:14:54;98391.03;;;5.45;85.40
77147;BME280;66121;52.584;9.694;2024-02-23T05:17:20;98410.97;;;5.45;85.40
77147;BME280;66121;52.584;9.694;2024-02-23T05:19:45;98396.81;;;5.54;84.55
77147;BME280;66121;52.584;9.694;2024-02-23T05:22:11;98378.09;;;5.49;84.02
77147;BME280;66121;52.584;9.694;2024-02-23T05:24:37;98380.38;;;5.57;83.59
77147;BME280;66121;52.584;9.694;2024-02-23T05:27:02;98382.84;;;5.45;83.63
77147;BME280;66121;52.584;9.694;2024-02-23T05:29:28;98381.25;;;5.47;83.18
77147;BME280;66121;52.584;9.694;2024-02-23T05:31:54;98362.03;;;5.54;82.26
77147;BME280;66121;52.584;9.694;2024-02-23T05:34:19;98356.97;;;5.53;82.22
77147;BME280;66121;52.584;9.694;2024-02-23T05:36:45;98341.38;;;5.50;81.69
77147;BME280;66121;52.584;9.694;2024-02-23T05:39:12;98350.75;;;5.49;81.48
77147;BME280;66121;52.584;9.694;2024-02-23T05:41:38;98315.63;;;5.44;80.38
77147;BME280;66121;52.584;9.694;2024-02-23T05:44:04;98320.66;;;5.52;79.84
77147;BME280;66121;52.584;9.694;2024-02-23T05:46:32;98308.97;;;5.48;79.21
77147;BME280;66121;52.584;9.694;2024-02-23T05:48:58;98311.75;;;5.45;79.08
77147;BME280;66121;52.584;9.694;2024-02-23T05:51:23;98298.03;;;5.48;78.42
77147;BME280;66121;52.584;9.694;2024-02-23T05:53:48;98280.88;;;5.44;77.71
77147;BME280;66121;52.584;9.694;2024-02-23T05:56:14;98280.84;;;5.48;77.57
77147;BME280;66121;52.584;9.694;2024-02-23T05:58:40;98265.28;;;5.41;76.98
77147;BME280;66121;52.584;9.694;2024-02-23T06:01:05;98259.31;;;5.53;76.31
77147;BME280;66121;52.584;9.694;2024-02-23T06:03:32;98264.53;;;5.41;76.53
77147;BME280;66121;52.584;9.694;2024-02-23T06:05:58;98278.38;;;5.57;76.75
77147;BME280;66121;52.584;9.694;2024-02-23T06:08:23;98287.03;;;5.52;76.35
77147;BME280;66121;52.584;9.694;2024-02-23T06:10:48;98310.50;;;5.53;77.33
77147;BME280;66121;52.584;9.694;2024-02-23T06:13:14;98315.16;;;5.56;77.70
77147;BME280;66121;52.584;9.694;2024-02-23T06:15:39;98307.00;;;5.49;77.75
77147;BME280;66121;52.584;9.694;2024-02-23T06:18:05;98307.00;;;5.49;77.49
77147;BME280;66121;52.584;9.694;2024-02-23T06:20:30;98335.97;;;5.43;77.42
77147;BME280;66121;52.584;9.694;2024-02-23T06:22:55;98321.44;;;5.53;77.19
77147;BME280;66121;52.584;9.694;2024-02-23T06:25:21;98301.97;;;5.44;77.82
77147;BME280;66121;52.584;9.694;2024-02-23T06:27:46;98321.44;;;5.49;76.81
77147;BME280;66121;52.584;9.694;2024-02-23T06:30:11;98333.16;;;5.53;77.06
77147;BME280;66121;52.584;9.694;2024-02-23T06:32:37;98342.53;;;5.52;77.16
77147;BME280;66121;52.584;9.694;2024-02-23T06:35:02;98358.16;;;5.52;77.47
77147;BME280;66121;52.584;9.694;2024-02-23T06:37:28;98363.97;;;5.57;77.23
77147;BME280;66121;52.584;9.694;2024-02-23T06:39:54;98351.38;;;5.63;76.70
77147;BME280;66121;52.584;9.694;2024-02-23T06:42:23;98356.03;;;5.66;76.52
77147;BME280;66121;52.584;9.694;2024-02-23T06:44:49;98366.28;;;5.59;77.05
77147;BME280;66121;52.584;9.694;2024-02-23T06:47:14;98367.13;;;5.56;77.31
77147;BME280;66121;52.584;9.694;2024-02-23T06:49:43;98372.50;;;5.63;77.25
77147;BME280;66121;52.584;9.694;2024-02-23T06:52:09;98381.53;;;5.60;77.57
77147;BME280;66121;52.584;9.694;2024-02-23T06:54:35;98388.56;;;5.61;77.37
77147;BME280;66121;52.584;9.694;2024-02-23T06:57:00;98392.84;;;5.62;77.57
77147;BME280;66121;52.584;9.694;2024-02-23T06:59:25;98423.41;;;5.53;78.50
77147;BME280;66121;52.584;9.694;2024-02-23T07:01:51;98424.16;;;5.54;78.46
77147;BME280;66121;52.584;9.694;2024-02-23T07:04:17;98419.91;;;5.49;78.57
77147;BME280;66121;52.584;9.694;2024-02-23T07:06:43;98432.34;;;5.61;78.34
77147;BME280;66121;52.584;9.694;2024-02-23T07:09:08;98423.34;;;5.60;78.48
77147;BME280;66121;52.584;9.694;2024-02-23T07:11:34;98439.19;;;5.76;78.13
77147;BME280;66121;52.584;9.694;2024-02-23T07:13:59;98416.16;;;5.73;77.94
77147;BME280;66121;52.584;9.694;2024-02-23T07:16:25;98427.44;;;5.79;77.54
77147;BME280;66121;52.584;9.694;2024-02-23T07:18:50;98434.13;;;5.78;77.55
77147;BME280;66121;52.584;9.694;2024-02-23T07:21:18;98441.50;;;5.81;78.07
77147;BME280;66121;52.584;9.694;2024-02-23T07:23:44;98448.53;;;5.82;78.14
77147;BME280;66121;52.584;9.694;2024-02-23T07:26:09;98451.22;;;5.89;78.01
77147;BME280;66121;52.584;9.694;2024-02-23T07:28:34;98446.91;;;5.92;78.04
77147;BME280;66121;52.584;9.694;2024-02-23T07:31:00;98459.78;;;5.95;78.07
77147;BME280;66121;52.584;9.694;2024-02-23T07:33:25;98453.50;;;5.98;78.04
77147;BME280;66121;52.584;9.694;2024-02-23T07:35:50;98462.09;;;5.96;78.28
77147;BME280;66121;52.584;9.694;2024-02-23T07:38:16;98452.38;;;5.92;78.14
77147;BME280;66121;52.584;9.694;2024-02-23T07:40:44;98451.91;;;6.00;77.73
77147;BME280;66121;52.584;9.694;2024-02-23T07:43:09;98460.94;;;5.97;77.76
77147;BME280;66121;52.584;9.694;2024-02-23T07:45:36;98487.00;;;6.09;78.16
77147;BME280;66121;52.584;9.694;2024-02-23T07:48:02;98458.16;;;6.01;77.75
77147;BME280;66121;52.584;9.694;2024-02-23T07:50:28;98440.88;;;6.07;77.13
77147;BME280;66121;52.584;9.694;2024-02-23T07:52:53;98441.31;;;6.02;76.64
77147;BME280;66121;52.584;9.694;2024-02-23T07:55:18;98456.88;;;6.12;76.84
77147;BME280;66121;52.584;9.694;2024-02-23T07:57:44;98428.72;;;6.12;76.22
77147;BME280;66121;52.584;9.694;2024-02-23T08:00:09;98437.34;;;6.10;76.04
77147;BME280;66121;52.584;9.694;2024-02-23T08:02:35;98453.41;;;6.08;76.20
77147;BME280;66121;52.584;9.694;2024-02-23T08:05:01;98448.69;;;6.09;76.14
77147;BME280;66121;52.584;9.694;2024-02-23T08:07:27;98463.78;;;6.24;75.94
77147;BME280;66121;52.584;9.694;2024-02-23T08:09:53;98468.88;;;6.22;76.36
77147;BME280;66121;52.584;9.694;2024-02-23T08:12:19;98472.34;;;6.26;76.16
77147;BME280;66121;52.584;9.694;2024-02-23T08:14:44;98448.50;;;6.26;75.48
77147;BME280;66121;52.584;9.694;2024-02-23T08:17:11;98463.31;;;6.32;75.64
77147;BME280;66121;52.584;9.694;2024-02-23T08:19:36;98441.72;;;6.38;74.88
77147;BME280;66121;52.584;9.694;2024-02-23T08:22:01;98433.13;;;6.36;74.71
77147;BME280;66121;52.584;9.694;2024-02-23T08:24:27;98395.91;;;6.38;73.49
77147;BME280;66121;52.584;9.694;2024-02-23T08:26:52;98409.84;;;6.51;73.81
77147;BME280;66121;52.584;9.694;2024-02-23T08:29:18;98434.78;;;6.60;73.90
77147;BME280;66121;52.584;9.694;2024-02-23T08:31:44;98381.28;;;6.52;72.30
77147;BME280;66121;52.584;9.694;2024-02-23T08:34:09;98401.50;;;6.62;72.68
77147;BME280;66121;52.584;9.694;2024-02-23T08:36:34;98403.44;;;6.61;72.67
77147;BME280;66121;52.584;9.694;2024-02-23T08:39:00;98416.22;;;6.71;72.78
77147;BME280;66121;52.584;9.694;2024-02-23T08:41:25;98409.66;;;6.65;72.59
77147;BME280;66121;52.584;9.694;2024-02-23T08:43:50;98408.75;;;6.75;72.16
77147;BME280;66121;52.584;9.694;2024-02-23T08:46:16;98425.66;;;6.70;72.79
77147;BME280;66121;52.584;9.694;2024-02-23T08:48:41;98414.75;;;6.63;73.04
77147;BME280;66121;52.584;9.694;2024-02-23T08:51:06;98408.06;;;6.68;71.95
77147;BME280;66121;52.584;9.694;2024-02-23T08:53:32;98415.78;;;6.76;72.17
77147;BME280;66121;52.584;9.694;2024-02-23T08:55:57;98406.31;;;6.81;71.60
77147;BME280;66121;52.584;9.694;2024-02-23T08:58:22;98423.44;;;6.88;72.28
77147;BME280;66121;52.584;9.694;2024-02-23T09:00:48;98389.09;;;7.07;71.32
77147;BME280;66121;52.584;9.694;2024-02-23T09:03:13;98382.25;;;7.42;70.79
77147;BME280;66121;52.584;9.694;2024-02-23T09:05:39;98359.44;;;7.68;69.73
77147;BME280;66121;52.584;9.694;2024-02-23T09:08:06;98318.69;;;7.66;69.08
77147;BME280;66121;52.584;9.694;2024-02-23T09:10:31;98291.72;;;7.42;68.42
77147;BME280;66121;52.584;9.694;2024-02-23T09:12:57;98300.22;;;7.90;67.96
77147;BME280;66121;52.584;9.694;2024-02-23T09:15:22;98277.13;;;7.88;67.71
77147;BME280;66121;52.584;9.694;2024-02-23T09:17:47;98292.28;;;8.12;67.84
77147;BME280;66121;52.584;9.694;2024-02-23T09:20:13;98268.38;;;7.93;66.57
77147;BME280;66121;52.584;9.694;2024-02-23T09:22:38;98280.09;;;8.13;66.84
77147;BME280;66121;52.584;9.694;2024-02-23T09:25:05;98279.63;;;8.54;66.36
77147;BME280;66121;52.584;9.694;2024-02-23T09:27:31;98265.34;;;8.23;66.25
77147;BME280;66121;52.584;9.694;2024-02-23T09:29:56;98238.56;;;8.63;65.02
77147;BME280;66121;52.584;9.694;2024-02-23T09:32:23;98204.66;;;8.69;63.97
77147;BME280;66121;52.584;9.694;2024-02-23T09:34:49;98192.78;;;9.17;62.57
77147;BME280;66121;52.584;9.694;2024-02-23T09:37:14;98185.88;;;8.96;62.17
77147;BME280;66121;52.584;9.694;2024-02-23T09:39:39;98251.84;;;9.13;62.85
77147;BME280;66121;52.584;9.694;2024-02-23T09:42:09;98198.25;;;9.33;61.54
77147;BME280;66121;52.584;9.694;2024-02-23T09:44:35;98206.81;;;9.35;61.98
77147;BME280;66121;52.584;9.694;2024-02-23T09:47:03;98250.22;;;9.15;62.37
77147;BME280;66121;52.584;9.694;2024-02-23T09:49:37;98237.94;;;8.55;62.88
77147;BME280;66121;52.584;9.694;2024-02-23T09:52:05;98262.50;;;8.10;63.13
77147;BME280;66121;52.584;9.694;2024-02-23T09:54:32;98300.59;;;8.28;63.57
77147;BME280;66121;52.584;9.694;2024-02-23T09:56:57;98272.59;;;8.69;62.49
77147;BME280;66121;52.584;9.694;2024-02-23T09:59:23;98247.75;;;8.56;62.49
77147;BME280;66121;52.584;9.694;2024-02-23T10:01:53;98256.50;;;8.15;63.01
77147;BME280;66121;52.584;9.694;2024-02-23T10:04:19;98307.84;;;7.99;63.99
77147;BME280;66121;52.584;9.694;2024-02-23T10:06:44;98321.38;;;8.09;64.29
77147;BME280;66121;52.584;9.694;2024-02-23T10:09:09;98307.81;;;7.83;64.04
77147;BME280;66121;52.584;9.694;2024-02-23T10:11:37;98294.13;;;7.59;63.94
77147;BME280;66121;52.584;9.694;2024-02-23T10:14:02;98263.16;;;7.39;63.46
77147;BME280;66121;52.584;9.694;2024-02-23T10:16:28;98314.38;;;7.46;64.27
77147;BME280;66121;52.584;9.694;2024-02-23T10:18:53;98372.41;;;7.67;64.67
77147;BME280;66121;52.584;9.694;2024-02-23T10:21:18;98397.03;;;7.71;65.41
77147;BME280;66121;52.584;9.694;2024-02-23T10:23:44;98353.38;;;7.57;64.09
77147;BME280;66121;52.584;9.694;2024-02-23T10:26:10;98355.56;;;7.65;64.35
77147;BME280;66121;52.584;9.694;2024-02-23T10:28:39;98368.94;;;7.63;64.44
77147;BME280;66121;52.584;9.694;2024-02-23T10:31:05;98354.16;;;7.57;64.25
77147;BME280;66121;52.584;9.694;2024-02-23T10:33:31;98391.25;;;7.65;64.63
77147;BME280;66121;52.584;9.694;2024-02-23T10:35:57;98405.84;;;7.82;65.12
77147;BME280;66121;52.584;9.694;2024-02-23T10:38:23;98409.88;;;7.77;64.83
77147;BME280;66121;52.584;9.694;2024-02-23T10:40:50;98382.91;;;7.72;64.66
77147;BME280;66121;52.584;9.694;2024-02-23T10:43:19;98410.75;;;7.71;65.28
77147;BME280;66121;52.584;9.694;2024-02-23T10:45:46;98393.72;;;7.60;64.60
77147;BME280;66121;52.584;9.694;2024-02-23T10:48:12;98421.34;;;7.72;65.56
77147;BME280;66121;52.584;9.694;2024-02-23T10:50:40;98406.34;;;7.77;65.36
77147;BME280;66121;52.584;9.694;2024-02-23T10:53:07;98399.16;;;7.83;65.32
77147;BME280;66121;52.584;9.694;2024-02-23T10:55:37;98404.78;;;7.76;65.42
77147;BME280;66121;52.584;9.694;2024-02-23T10:58:03;98442.97;;;7.90;66.17
77147;BME280;66121;52.584;9.694;2024-02-23T11:00:32;98440.03;;;8.20;65.60
77147;BME280;66121;52.584;9.694;2024-02-23T11:02:58;98406.25;;;8.23;64.97
77147;BME280;66121;52.584;9.694;2024-02-23T11:05:24;98334.97;;;7.97;64.00
77147;BME280;66121;52.584;9.694;2024-02-23T11:07:50;98346.25;;;7.83;64.15
77147;BME280;66121;52.584;9.694;2024-02-23T11:10:17;98387.66;;;8.11;64.84
77147;BME280;66121;52.584;9.694;2024-02-23T11:12:43;98390.09;;;8.25;65.02
77147;BME280;66121;52.584;9.694;2024-02-23T11:15:08;98381.47;;;8.27;64.86
77147;BME280;66121;52.584;9.694;2024-02-23T11:17:35;98357.38;;;8.34;63.96
77147;BME280;66121;52.584;9.694;2024-02-23T11:20:05;98299.31;;;8.68;62.30
77147;BME280;66121;52.584;9.694;2024-02-23T11:22:33;98303.16;;;8.55;62.71
77147;BME280;66121;52.584;9.694;2024-02-23T11:25:07;98288.34;;;8.32;62.52
77147;BME280;66121;52.584;9.694;2024-02-23T11:27:37;98297.56;;;8.58;63.04
77147;BME280;66121;52.584;9.694;2024-02-23T11:30:03;98324.06;;;9.00;62.53
77147;BME280;66121;52.584;9.694;2024-02-23T11:32:44;98295.25;;;8.57;62.83
77147;BME280;66121;52.584;9.694;2024-02-23T11:35:13;98285.19;;;8.50;62.47
77147;BME280;66121;52.584;9.694;2024-02-23T11:37:49;98265.03;;;8.73;61.82
77147;BME280;66121;52.584;9.694;2024-02-23T11:40:22;98293.03;;;9.32;61.24
77147;BME280;66121;52.584;9.694;2024-02-23T11:42:47;98248.97;;;8.87;61.41
77147;BME280;66121;52.584;9.694;2024-02-23T11:45:13;98251.03;;;8.67;60.99
77147;BME280;66121;52.584;9.694;2024-02-23T11:47:38;98237.00;;;8.46;61.64
77147;BME280;66121;52.584;9.694;2024-02-23T11:50:07;98295.16;;;8.60;62.53
77147;BME280;66121;52.584;9.694;2024-02-23T11:52:33;98257.81;;;8.63;62.07
77147;BME280;66121;52.584;9.694;2024-02-23T11:54:59;98261.41;;;8.76;61.19
77147;BME280;66121;52.584;9.694;2024-02-23T11:57:24;98240.03;;;8.51;61.29
77147;BME280;66121;52.584;9.694;2024-02-23T11:59:51;98207.56;;;8.62;60.50
77147;BME280;66121;52.584;9.694;2024-02-23T12:02:17;98193.22;;;8.55;60.51
77147;BME280;66121;52.584;9.694;2024-02-23T12:04:43;98228.16;;;8.70;60.26
77147;BME280;66121;52.584;9.694;2024-02-23T12:07:08;98222.34;;;8.68;60.86
77147;BME280;66121;52.584;9.694;2024-02-23T12:09:34;98227.13;;;8.80;60.93
77147;BME280;66121;52.584;9.694;2024-02-23T12:11:59;98218.53;;;8.78;60.06
77147;BME280;66121;52.584;9.694;2024-02-23T12:14:24;98199.16;;;8.69;60.33
77147;BME280;66121;52.584;9.694;2024-02-23T12:16:51;98183.78;;;9.17;58.91
77147;BME280;66121;52.584;9.694;2024-02-23T12:19:16;98112.84;;;9.08;58.72
77147;BME280;66121;52.584;9.694;2024-02-23T12:21:45;98159.53;;;9.12;58.66
77147;BME280;66121;52.584;9.694;2024-02-23T12:24:12;98178.03;;;8.95;59.58
77147;BME280;66121;52.584;9.694;2024-02-23T12:26:37;98173.50;;;8.88;59.40
77147;BME280;66121;52.584;9.694;2024-02-23T12:29:03;98181.56;;;9.53;58.77
77147;BME280;66121;52.584;9.694;2024-02-23T12:31:28;98133.91;;;9.56;57.87
77147;BME280;66121;52.584;9.694;2024-02-23T12:33:56;98133.63;;;10.04;57.36
77147;BME280;66121;52.584;9.694;2024-02-23T12:36:22;98081.38;;;10.01;56.26
77147;BME280;66121;52.584;9.694;2024-02-23T12:38:47;98076.72;;;10.10;56.17
77147;BME280;66121;52.584;9.694;2024-02-23T12:41:13;98151.44;;;9.87;57.68
77147;BME280;66121;52.584;9.694;2024-02-23T12:43:38;98132.53;;;10.14;56.19
77147;BME280;66121;52.584;9.694;2024-02-23T12:46:03;98112.56;;;10.35;55.56
77147;BME280;66121;52.584;9.694;2024-02-23T12:48:29;98065.06;;;10.19;54.45
77147;BME280;66121;52.584;9.694;2024-02-23T12:50:54;98109.75;;;10.48;55.20
77147;BME280;66121;52.584;9.694;2024-02-23T12:55:58;98162.38;;;9.37;57.07
77147;BME280;66121;52.584;9.694;2024-02-23T12:58:23;98168.47;;;9.16;57.05
77147;BME280;66121;52.584;9.694;2024-02-23T13:00:49;98189.94;;;8.92;57.60
77147;BME280;66121;52.584;9.694;2024-02-23T13:03:14;98201.59;;;8.96;57.96
77147;BME280;66121;52.584;9.694;2024-02-23T13:05:40;98212.00;;;9.04;57.41